sensor_id;sensor_type;location;lat;lon;timestamp;P1;durP1;ratioP1;P2;durP2;ratioP2
20084;SDS011;10202;48.474;9.138;2023-02-10T00:02:22;35.97;;;18.80;;
20084;SDS011;10202;48.474;9.138;2023-02-10T00:04:48;43.17;;;20.43;;
20084;SDS011;10202;48.474;9.138;2023-02-10T00:07:19;44.57;;;21.60;;
20084;SDS011;10202;48.474;9.138;2023-02-10T00:09:49;45.13;;;22.23;;
20084;SDS011;10202;48.474;9.138;2023-02-10T00:12:20;46.33;;;23.03;;
20084;SDS011;10202;48.474;9.138;2023-02-10T00:14:52;40.27;;;20.07;;
20084;SDS011;10202;48.474;9.138;2023-02-10T00:17:20;39.73;;;20.40;;
20084;SDS011;10202;48.474;9.138;2023-02-10T00:19:50;42.67;;;20.70;;
20084;SDS011;10202;48.474;9.138;2023-02-10T00:22:18;42.23;;;20.63;;
20084;SDS011;10202;48.474;9.138;2023-02-10T00:24:44;40.83;;;20.47;;
20084;SDS011;10202;48.474;9.138;2023-02-10T00:27:09;41.53;;;21.33;;
20084;SDS011;10202;48.474;9.138;2023-02-10T00:29:39;36.67;;;19.20;;
20084;SDS011;10202;48.474;9.138;2023-02-10T00:32:10;40.27;;;20.07;;
20084;SDS011;10202;48.474;9.138;2023-02-10T00:34:38;38.23;;;19.50;;
20084;SDS011;10202;48.474;9.138;2023-02-10T00:37:04;35.00;;;17.83;;
20084;SDS011;10202;48.474;9.138;2023-02-10T00:39:32;38.80;;;18.93;;
20084;SDS011;10202;48.474;9.138;2023-02-10T00:41:59;38.13;;;18.97;;
20084;SDS011;10202;48.474;9.138;2023-02-10T00:44:24;39.47;;;19.13;;
20084;SDS011;10202;48.474;9.138;2023-02-10T00:46:52;38.57;;;17.73;;
20084;SDS011;10202;48.474;9.138;2023-02-10T00:49:20;32.93;;;17.17;;
20084;SDS011;10202;48.474;9.138;2023-02-10T00:51:48;36.83;;;17.80;;
20084;SDS011;10202;48.474;9.138;2023-02-10T00:54:25;37.40;;;17.80;;
20084;SDS011;10202;48.474;9.138;2023-02-10T00:56:53;34.13;;;16.80;;
20084;SDS011;10202;48.474;9.138;2023-02-10T00:59:23;43.07;;;18.37;;
20084;SDS011;10202;48.474;9.138;2023-02-10T01:01:48;37.50;;;17.13;;
20084;SDS011;10202;48.474;9.138;2023-02-10T01:04:14;33.17;;;17.03;;
20084;SDS011;10202;48.474;9.138;2023-02-10T01:06:42;35.93;;;17.90;;
20084;SDS011;10202;48.474;9.138;2023-02-10T01:09:10;33.60;;;16.50;;
20084;SDS011;10202;48.474;9.138;2023-02-10T01:11:38;34.97;;;18.50;;
20084;SDS011;10202;48.474;9.138;2023-02-10T01:14:11;33.37;;;15.77;;
20084;SDS011;10202;48.474;9.138;2023-02-10T01:16:41;32.87;;;16.80;;
20084;SDS011;10202;48.474;9.138;2023-02-10T01:19:10;33.90;;;16.57;;
20084;SDS011;10202;48.474;9.138;2023-02-10T01:21:40;32.40;;;17.13;;
20084;SDS011;10202;48.474;9.138;2023-02-10T01:24:08;33.43;;;16.17;;
20084;SDS011;10202;48.474;9.138;2023-02-10T01:26:36;36.03;;;17.33;;
20084;SDS011;10202;48.474;9.138;2023-02-10T01:29:04;38.37;;;18.27;;
20084;SDS011;10202;48.474;9.138;2023-02-10T01:31:30;36.03;;;18.73;;
20084;SDS011;10202;48.474;9.138;2023-02-10T01:33:55;35.53;;;18.80;;
20084;SDS011;10202;48.474;9.138;2023-02-10T01:36:23;35.70;;;18.63;;
20084;SDS011;10202;48.474;9.138;2023-02-10T01:38:52;36.83;;;19.27;;
20084;SDS011;10202;48.474;9.138;2023-02-10T01:41:21;36.33;;;18.83;;
20084;SDS011;10202;48.474;9.138;2023-02-10T01:46:54;37.20;;;19.33;;
20084;SDS011;10202;48.474;9.138;2023-02-10T01:49:25;38.87;;;19.20;;
20084;SDS011;10202;48.474;9.138;2023-02-10T01:51:58;46.27;;;20.27;;
20084;SDS011;10202;48.474;9.138;2023-02-10T01:54:36;48.70;;;21.50;;
20084;SDS011;10202;48.474;9.138;2023-02-10T01:57:14;48.93;;;22.70;;
20084;SDS011;10202;48.474;9.138;2023-02-10T01:59:43;40.87;;;20.37;;
20084;SDS011;10202;48.474;9.138;2023-02-10T02:02:12;44.47;;;20.57;;
20084;SDS011;10202;48.474;9.138;2023-02-10T02:04:50;34.10;;;18.57;;
20084;SDS011;10202;48.474;9.138;2023-02-10T02:07:25;37.33;;;18.73;;
20084;SDS011;10202;48.474;9.138;2023-02-10T02:09:57;36.87;;;18.83;;
20084;SDS011;10202;48.474;9.138;2023-02-10T02:18:25;37.80;;;18.13;;
20084;SDS011;10202;48.474;9.138;2023-02-10T02:32:48;34.27;;;17.93;;
20084;SDS011;10202;48.474;9.138;2023-02-10T02:35:27;32.23;;;16.70;;
20084;SDS011;10202;48.474;9.138;2023-02-10T02:38:00;33.50;;;16.40;;
20084;SDS011;10202;48.474;9.138;2023-02-10T02:40:28;33.73;;;17.00;;
20084;SDS011;10202;48.474;9.138;2023-02-10T02:42:59;31.70;;;16.53;;
20084;SDS011;10202;48.474;9.138;2023-02-10T02:45:40;32.53;;;16.57;;
20084;SDS011;10202;48.474;9.138;2023-02-10T02:48:34;33.83;;;16.57;;
20084;SDS011;10202;48.474;9.138;2023-02-10T02:51:20;37.33;;;17.67;;
20084;SDS011;10202;48.474;9.138;2023-02-10T02:54:07;39.80;;;17.43;;
20084;SDS011;10202;48.474;9.138;2023-02-10T02:56:41;38.97;;;18.00;;
20084;SDS011;10202;48.474;9.138;2023-02-10T03:01:56;40.37;;;19.30;;
20084;SDS011;10202;48.474;9.138;2023-02-10T03:04:26;41.80;;;18.67;;
20084;SDS011;10202;48.474;9.138;2023-02-10T03:06:55;37.93;;;18.87;;
20084;SDS011;10202;48.474;9.138;2023-02-10T03:09:21;36.23;;;18.27;;
20084;SDS011;10202;48.474;9.138;2023-02-10T03:11:49;35.55;;;17.50;;
20084;SDS011;10202;48.474;9.138;2023-02-10T03:14:14;34.47;;;17.50;;
20084;SDS011;10202;48.474;9.138;2023-02-10T03:16:40;32.27;;;17.37;;
20084;SDS011;10202;48.474;9.138;2023-02-10T03:19:10;36.23;;;16.73;;
20084;SDS011;10202;48.474;9.138;2023-02-10T03:21:38;36.33;;;18.63;;
20084;SDS011;10202;48.474;9.138;2023-02-10T03:24:08;37.40;;;17.73;;
20084;SDS011;10202;48.474;9.138;2023-02-10T03:26:39;36.40;;;16.93;;
20084;SDS011;10202;48.474;9.138;2023-02-10T03:29:06;38.97;;;18.00;;
20084;SDS011;10202;48.474;9.138;2023-02-10T03:31:32;33.87;;;17.37;;
20084;SDS011;10202;48.474;9.138;2023-02-10T03:34:00;35.13;;;17.10;;
20084;SDS011;10202;48.474;9.138;2023-02-10T03:36:27;32.67;;;16.90;;
20084;SDS011;10202;48.474;9.138;2023-02-10T03:38:53;35.43;;;18.07;;
20084;SDS011;10202;48.474;9.138;2023-02-10T03:41:23;36.17;;;18.10;;
20084;SDS011;10202;48.474;9.138;2023-02-10T03:43:49;34.77;;;17.10;;
20084;SDS011;10202;48.474;9.138;2023-02-10T03:46:14;35.23;;;17.03;;
20084;SDS011;10202;48.474;9.138;2023-02-10T03:48:42;35.63;;;17.07;;
20084;SDS011;10202;48.474;9.138;2023-02-10T03:51:11;35.77;;;17.20;;
20084;SDS011;10202;48.474;9.138;2023-02-10T03:53:37;29.53;;;16.10;;
20084;SDS011;10202;48.474;9.138;2023-02-10T03:56:07;33.57;;;15.77;;
20084;SDS011;10202;48.474;9.138;2023-02-10T03:58:36;36.40;;;16.77;;
20084;SDS011;10202;48.474;9.138;2023-02-10T04:01:10;34.27;;;16.30;;
20084;SDS011;10202;48.474;9.138;2023-02-10T04:03:38;37.30;;;18.03;;
20084;SDS011;10202;48.474;9.138;2023-02-10T04:06:09;31.73;;;16.57;;
20084;SDS011;10202;48.474;9.138;2023-02-10T04:08:35;33.80;;;16.33;;
20084;SDS011;10202;48.474;9.138;2023-02-10T04:11:01;31.03;;;16.80;;
20084;SDS011;10202;48.474;9.138;2023-02-10T04:13:30;39.17;;;17.73;;
20084;SDS011;10202;48.474;9.138;2023-02-10T04:16:02;38.43;;;18.90;;
20084;SDS011;10202;48.474;9.138;2023-02-10T04:18:33;35.27;;;16.93;;
20084;SDS011;10202;48.474;9.138;2023-02-10T04:21:03;35.17;;;17.23;;
20084;SDS011;10202;48.474;9.138;2023-02-10T04:23:34;30.77;;;17.47;;
20084;SDS011;10202;48.474;9.138;2023-02-10T04:26:02;35.17;;;17.73;;
20084;SDS011;10202;48.474;9.138;2023-02-10T04:28:33;37.40;;;18.00;;
20084;SDS011;10202;48.474;9.138;2023-02-10T04:30:59;40.60;;;19.17;;
20084;SDS011;10202;48.474;9.138;2023-02-10T04:33:27;40.13;;;17.20;;
20084;SDS011;10202;48.474;9.138;2023-02-10T04:35:54;31.27;;;16.63;;
20084;SDS011;10202;48.474;9.138;2023-02-10T04:38:22;39.70;;;18.47;;
20084;SDS011;10202;48.474;9.138;2023-02-10T04:40:48;35.27;;;16.97;;
20084;SDS011;10202;48.474;9.138;2023-02-10T04:43:14;37.43;;;18.43;;
20084;SDS011;10202;48.474;9.138;2023-02-10T04:45:45;34.30;;;17.87;;
20084;SDS011;10202;48.474;9.138;2023-02-10T04:48:13;35.40;;;18.00;;
20084;SDS011;10202;48.474;9.138;2023-02-10T04:50:39;37.17;;;18.63;;
20084;SDS011;10202;48.474;9.138;2023-02-10T04:53:05;34.87;;;18.63;;
20084;SDS011;10202;48.474;9.138;2023-02-10T04:55:33;36.17;;;18.40;;
20084;SDS011;10202;48.474;9.138;2023-02-10T04:58:06;37.50;;;18.50;;
20084;SDS011;10202;48.474;9.138;2023-02-10T05:00:32;37.10;;;18.57;;
20084;SDS011;10202;48.474;9.138;2023-02-10T05:03:00;41.27;;;20.07;;
20084;SDS011;10202;48.474;9.138;2023-02-10T05:05:26;41.70;;;21.20;;
20084;SDS011;10202;48.474;9.138;2023-02-10T05:07:54;39.77;;;20.87;;
20084;SDS011;10202;48.474;9.138;2023-02-10T05:10:22;36.47;;;19.70;;
20084;SDS011;10202;48.474;9.138;2023-02-10T05:12:47;39.43;;;19.27;;
20084;SDS011;10202;48.474;9.138;2023-02-10T05:15:13;35.23;;;18.80;;
20084;SDS011;10202;48.474;9.138;2023-02-10T05:17:39;42.07;;;20.17;;
20084;SDS011;10202;48.474;9.138;2023-02-10T05:20:05;37.20;;;19.60;;
20084;SDS011;10202;48.474;9.138;2023-02-10T05:22:37;40.70;;;19.90;;
20084;SDS011;10202;48.474;9.138;2023-02-10T05:25:06;37.80;;;20.00;;
20084;SDS011;10202;48.474;9.138;2023-02-10T05:27:33;37.33;;;19.93;;
20084;SDS011;10202;48.474;9.138;2023-02-10T05:30:04;38.20;;;18.97;;
20084;SDS011;10202;48.474;9.138;2023-02-10T05:32:32;50.23;;;23.63;;
20084;SDS011;10202;48.474;9.138;2023-02-10T05:35:03;56.00;;;26.80;;
20084;SDS011;10202;48.474;9.138;2023-02-10T05:37:28;38.90;;;18.60;;
20084;SDS011;10202;48.474;9.138;2023-02-10T05:39:56;44.93;;;21.97;;
20084;SDS011;10202;48.474;9.138;2023-02-10T05:42:25;66.17;;;28.80;;
20084;SDS011;10202;48.474;9.138;2023-02-10T05:44:51;41.87;;;19.30;;
20084;SDS011;10202;48.474;9.138;2023-02-10T05:47:17;40.63;;;19.20;;
20084;SDS011;10202;48.474;9.138;2023-02-10T05:49:42;36.30;;;18.87;;
20084;SDS011;10202;48.474;9.138;2023-02-10T05:52:08;65.13;;;26.87;;
20084;SDS011;10202;48.474;9.138;2023-02-10T05:54:34;56.00;;;23.70;;
20084;SDS011;10202;48.474;9.138;2023-02-10T05:57:00;42.80;;;20.33;;
20084;SDS011;10202;48.474;9.138;2023-02-10T05:59:28;68.60;;;28.30;;
20084;SDS011;10202;48.474;9.138;2023-02-10T06:01:55;53.60;;;24.27;;
20084;SDS011;10202;48.474;9.138;2023-02-10T06:04:23;66.87;;;27.23;;
20084;SDS011;10202;48.474;9.138;2023-02-10T06:06:54;48.03;;;22.33;;
20084;SDS011;10202;48.474;9.138;2023-02-10T06:09:22;44.00;;;20.00;;
20084;SDS011;10202;48.474;9.138;2023-02-10T06:11:50;41.97;;;19.63;;
20084;SDS011;10202;48.474;9.138;2023-02-10T06:14:19;41.37;;;20.03;;
20084;SDS011;10202;48.474;9.138;2023-02-10T06:16:45;36.73;;;18.77;;
20084;SDS011;10202;48.474;9.138;2023-02-10T06:19:12;36.23;;;18.67;;
20084;SDS011;10202;48.474;9.138;2023-02-10T06:21:38;35.87;;;18.27;;
20084;SDS011;10202;48.474;9.138;2023-02-10T06:24:04;36.70;;;18.30;;
20084;SDS011;10202;48.474;9.138;2023-02-10T06:26:32;38.83;;;18.53;;
20084;SDS011;10202;48.474;9.138;2023-02-10T06:29:00;38.23;;;19.07;;
20084;SDS011;10202;48.474;9.138;2023-02-10T06:31:28;35.03;;;17.87;;
20084;SDS011;10202;48.474;9.138;2023-02-10T06:33:54;39.50;;;19.53;;
20084;SDS011;10202;48.474;9.138;2023-02-10T06:36:22;42.13;;;18.77;;
20084;SDS011;10202;48.474;9.138;2023-02-10T06:38:49;42.97;;;19.63;;
20084;SDS011;10202;48.474;9.138;2023-02-10T06:41:18;46.00;;;23.83;;
20084;SDS011;10202;48.474;9.138;2023-02-10T06:43:48;50.87;;;26.60;;
20084;SDS011;10202;48.474;9.138;2023-02-10T06:46:18;75.97;;;37.63;;
20084;SDS011;10202;48.474;9.138;2023-02-10T06:48:44;68.60;;;33.73;;
20084;SDS011;10202;48.474;9.138;2023-02-10T06:51:12;59.20;;;30.23;;
20084;SDS011;10202;48.474;9.138;2023-02-10T06:53:42;46.57;;;24.03;;
20084;SDS011;10202;48.474;9.138;2023-02-10T06:56:11;50.07;;;25.30;;
20084;SDS011;10202;48.474;9.138;2023-02-10T06:58:41;59.53;;;29.90;;
20084;SDS011;10202;48.474;9.138;2023-02-10T07:01:11;54.13;;;26.80;;
20084;SDS011;10202;48.474;9.138;2023-02-10T07:03:48;53.40;;;26.63;;
20084;SDS011;10202;48.474;9.138;2023-02-10T07:06:16;49.97;;;25.83;;
20084;SDS011;10202;48.474;9.138;2023-02-10T07:08:46;47.03;;;24.10;;
20084;SDS011;10202;48.474;9.138;2023-02-10T07:11:15;42.47;;;22.73;;
20084;SDS011;10202;48.474;9.138;2023-02-10T07:13:41;49.10;;;22.97;;
20084;SDS011;10202;48.474;9.138;2023-02-10T07:16:12;45.67;;;22.83;;
20084;SDS011;10202;48.474;9.138;2023-02-10T07:18:43;45.90;;;23.47;;
20084;SDS011;10202;48.474;9.138;2023-02-10T07:21:12;52.17;;;25.47;;
20084;SDS011;10202;48.474;9.138;2023-02-10T07:23:42;59.63;;;27.27;;
20084;SDS011;10202;48.474;9.138;2023-02-10T07:26:10;53.97;;;27.50;;
20084;SDS011;10202;48.474;9.138;2023-02-10T07:28:37;58.27;;;30.13;;
20084;SDS011;10202;48.474;9.138;2023-02-10T07:31:07;52.43;;;25.90;;
20084;SDS011;10202;48.474;9.138;2023-02-10T07:33:38;60.23;;;30.57;;
20084;SDS011;10202;48.474;9.138;2023-02-10T07:36:06;59.90;;;28.20;;
20084;SDS011;10202;48.474;9.138;2023-02-10T07:38:32;54.83;;;28.37;;
20084;SDS011;10202;48.474;9.138;2023-02-10T07:40:58;49.73;;;24.60;;
20084;SDS011;10202;48.474;9.138;2023-02-10T07:43:28;72.47;;;32.30;;
20084;SDS011;10202;48.474;9.138;2023-02-10T07:46:02;63.03;;;27.00;;
20084;SDS011;10202;48.474;9.138;2023-02-10T07:48:33;55.47;;;25.77;;
20084;SDS011;10202;48.474;9.138;2023-02-10T07:50:58;62.27;;;28.13;;
20084;SDS011;10202;48.474;9.138;2023-02-10T07:53:31;51.97;;;24.93;;
20084;SDS011;10202;48.474;9.138;2023-02-10T07:56:05;51.87;;;25.53;;
20084;SDS011;10202;48.474;9.138;2023-02-10T07:58:33;48.73;;;24.07;;
20084;SDS011;10202;48.474;9.138;2023-02-10T08:01:05;45.20;;;23.77;;
20084;SDS011;10202;48.474;9.138;2023-02-10T08:03:34;45.17;;;23.37;;
20084;SDS011;10202;48.474;9.138;2023-02-10T08:06:03;50.47;;;25.03;;
20084;SDS011;10202;48.474;9.138;2023-02-10T08:08:32;54.37;;;26.80;;
20084;SDS011;10202;48.474;9.138;2023-02-10T08:11:08;51.33;;;26.63;;
20084;SDS011;10202;48.474;9.138;2023-02-10T08:13:33;65.47;;;30.87;;
20084;SDS011;10202;48.474;9.138;2023-02-10T08:16:04;86.13;;;40.17;;
20084;SDS011;10202;48.474;9.138;2023-02-10T08:18:39;88.90;;;37.53;;
20084;SDS011;10202;48.474;9.138;2023-02-10T08:21:08;58.23;;;30.90;;
20084;SDS011;10202;48.474;9.138;2023-02-10T08:23:36;64.13;;;31.27;;
20084;SDS011;10202;48.474;9.138;2023-02-10T08:26:12;68.87;;;33.57;;
20084;SDS011;10202;48.474;9.138;2023-02-10T08:28:40;81.93;;;39.57;;
20084;SDS011;10202;48.474;9.138;2023-02-10T08:31:10;83.67;;;39.30;;
20084;SDS011;10202;48.474;9.138;2023-02-10T08:33:38;59.57;;;30.40;;
20084;SDS011;10202;48.474;9.138;2023-02-10T08:36:04;52.23;;;26.83;;
20084;SDS011;10202;48.474;9.138;2023-02-10T08:38:37;55.77;;;26.90;;
20084;SDS011;10202;48.474;9.138;2023-02-10T08:41:08;68.47;;;30.03;;
20084;SDS011;10202;48.474;9.138;2023-02-10T08:43:36;57.30;;;29.13;;
20084;SDS011;10202;48.474;9.138;2023-02-10T08:46:02;55.53;;;26.77;;
20084;SDS011;10202;48.474;9.138;2023-02-10T08:48:36;52.90;;;26.37;;
20084;SDS011;10202;48.474;9.138;2023-02-10T08:51:05;44.07;;;23.43;;
20084;SDS011;10202;48.474;9.138;2023-02-10T08:53:35;46.27;;;24.80;;
20084;SDS011;10202;48.474;9.138;2023-02-10T08:56:02;50.07;;;24.87;;
20084;SDS011;10202;48.474;9.138;2023-02-10T08:58:31;41.03;;;22.70;;
20084;SDS011;10202;48.474;9.138;2023-02-10T09:00:59;46.67;;;22.83;;
20084;SDS011;10202;48.474;9.138;2023-02-10T09:03:25;41.20;;;21.10;;
20084;SDS011;10202;48.474;9.138;2023-02-10T09:05:53;48.87;;;23.87;;
20084;SDS011;10202;48.474;9.138;2023-02-10T09:08:19;46.90;;;23.97;;
20084;SDS011;10202;48.474;9.138;2023-02-10T09:10:49;47.97;;;24.53;;
20084;SDS011;10202;48.474;9.138;2023-02-10T09:13:15;47.00;;;24.30;;
20084;SDS011;10202;48.474;9.138;2023-02-10T09:15:46;44.67;;;22.40;;
20084;SDS011;10202;48.474;9.138;2023-02-10T09:18:14;44.60;;;24.50;;
20084;SDS011;10202;48.474;9.138;2023-02-10T09:20:42;47.80;;;23.33;;
20084;SDS011;10202;48.474;9.138;2023-02-10T09:23:15;47.23;;;23.37;;
20084;SDS011;10202;48.474;9.138;2023-02-10T09:25:41;43.90;;;22.47;;
20084;SDS011;10202;48.474;9.138;2023-02-10T09:28:11;42.03;;;23.27;;
20084;SDS011;10202;48.474;9.138;2023-02-10T09:30:39;47.33;;;23.70;;
20084;SDS011;10202;48.474;9.138;2023-02-10T09:33:09;42.03;;;22.17;;
20084;SDS011;10202;48.474;9.138;2023-02-10T09:35:35;44.20;;;22.60;;
20084;SDS011;10202;48.474;9.138;2023-02-10T09:38:01;41.43;;;22.60;;
20084;SDS011;10202;48.474;9.138;2023-02-10T09:40:28;41.03;;;22.67;;
20084;SDS011;10202;48.474;9.138;2023-02-10T09:46:41;43.83;;;21.90;;
20084;SDS011;10202;48.474;9.138;2023-02-10T09:52:37;42.23;;;21.83;;
20084;SDS011;10202;48.474;9.138;2023-02-10T09:58:42;40.67;;;21.43;;
20084;SDS011;10202;48.474;9.138;2023-02-10T10:01:21;42.83;;;21.13;;
20084;SDS011;10202;48.474;9.138;2023-02-10T10:04:22;39.63;;;21.53;;
20084;SDS011;10202;48.474;9.138;2023-02-10T10:06:50;41.00;;;22.97;;
20084;SDS011;10202;48.474;9.138;2023-02-10T10:12:16;43.03;;;21.50;;
20084;SDS011;10202;48.474;9.138;2023-02-10T10:14:43;46.40;;;23.20;;
20084;SDS011;10202;48.474;9.138;2023-02-10T10:17:19;44.53;;;23.30;;
20084;SDS011;10202;48.474;9.138;2023-02-10T10:20:39;42.17;;;21.40;;
20084;SDS011;10202;48.474;9.138;2023-02-10T10:31:26;43.60;;;22.20;;
20084;SDS011;10202;48.474;9.138;2023-02-10T10:34:03;44.53;;;23.20;;
20084;SDS011;10202;48.474;9.138;2023-02-10T10:36:42;42.03;;;22.27;;
20084;SDS011;10202;48.474;9.138;2023-02-10T10:42:26;44.03;;;22.27;;
20084;SDS011;10202;48.474;9.138;2023-02-10T10:44:59;37.80;;;21.40;;
20084;SDS011;10202;48.474;9.138;2023-02-10T10:47:39;42.03;;;22.67;;
20084;SDS011;10202;48.474;9.138;2023-02-10T10:50:20;40.63;;;21.53;;
20084;SDS011;10202;48.474;9.138;2023-02-10T10:52:48;44.37;;;22.30;;
20084;SDS011;10202;48.474;9.138;2023-02-10T10:55:20;38.83;;;21.97;;
20084;SDS011;10202;48.474;9.138;2023-02-10T10:58:28;38.40;;;21.73;;
20084;SDS011;10202;48.474;9.138;2023-02-10T11:01:01;41.53;;;22.13;;
20084;SDS011;10202;48.474;9.138;2023-02-10T11:03:30;41.37;;;22.13;;
20084;SDS011;10202;48.474;9.138;2023-02-10T11:06:06;43.17;;;22.23;;
20084;SDS011;10202;48.474;9.138;2023-02-10T11:11:19;37.30;;;21.60;;
20084;SDS011;10202;48.474;9.138;2023-02-10T11:16:56;38.90;;;20.73;;
20084;SDS011;10202;48.474;9.138;2023-02-10T11:19:30;42.37;;;22.13;;
20084;SDS011;10202;48.474;9.138;2023-02-10T11:22:01;40.20;;;21.13;;
20084;SDS011;10202;48.474;9.138;2023-02-10T11:24:31;41.60;;;21.67;;
20084;SDS011;10202;48.474;9.138;2023-02-10T11:27:02;43.57;;;22.10;;
20084;SDS011;10202;48.474;9.138;2023-02-10T11:29:49;37.37;;;20.03;;
20084;SDS011;10202;48.474;9.138;2023-02-10T11:32:19;41.30;;;20.87;;
20084;SDS011;10202;48.474;9.138;2023-02-10T11:34:49;38.60;;;21.67;;
20084;SDS011;10202;48.474;9.138;2023-02-10T11:37:22;35.57;;;19.47;;
20084;SDS011;10202;48.474;9.138;2023-02-10T11:39:52;37.67;;;20.37;;
20084;SDS011;10202;48.474;9.138;2023-02-10T11:47:30;43.07;;;20.67;;
20084;SDS011;10202;48.474;9.138;2023-02-10T11:49:59;37.57;;;21.27;;
20084;SDS011;10202;48.474;9.138;2023-02-10T11:52:28;36.97;;;19.87;;
20084;SDS011;10202;48.474;9.138;2023-02-10T11:54:57;36.40;;;19.93;;
20084;SDS011;10202;48.474;9.138;2023-02-10T12:08:51;34.93;;;20.27;;
20084;SDS011;10202;48.474;9.138;2023-02-10T12:37:45;31.33;;;17.10;;
20084;SDS011;10202;48.474;9.138;2023-02-10T12:46:25;31.07;;;16.77;;
20084;SDS011;10202;48.474;9.138;2023-02-10T12:57:21;28.93;;;15.17;;
20084;SDS011;10202;48.474;9.138;2023-02-10T13:02:57;27.70;;;15.97;;
20084;SDS011;10202;48.474;9.138;2023-02-10T13:06:18;30.87;;;16.50;;
20084;SDS011;10202;48.474;9.138;2023-02-10T13:09:01;28.70;;;15.87;;
20084;SDS011;10202;48.474;9.138;2023-02-10T13:12:05;32.38;;;16.30;;
20084;SDS011;10202;48.474;9.138;2023-02-10T13:14:47;28.93;;;15.93;;
20084;SDS011;10202;48.474;9.138;2023-02-10T13:17:17;24.67;;;14.60;;
20084;SDS011;10202;48.474;9.138;2023-02-10T13:25:28;26.13;;;14.30;;
20084;SDS011;10202;48.474;9.138;2023-02-10T13:34:47;26.40;;;14.87;;
20084;SDS011;10202;48.474;9.138;2023-02-10T13:40:28;29.03;;;14.60;;
20084;SDS011;10202;48.474;9.138;2023-02-10T13:43:30;28.00;;;14.67;;
20084;SDS011;10202;48.474;9.138;2023-02-10T13:46:00;29.83;;;15.63;;
20084;SDS011;10202;48.474;9.138;2023-02-10T13:48:32;26.30;;;14.67;;
20084;SDS011;10202;48.474;9.138;2023-02-10T13:51:00;28.97;;;16.23;;
20084;SDS011;10202;48.474;9.138;2023-02-10T13:58:54;25.33;;;15.43;;
20084;SDS011;10202;48.474;9.138;2023-02-10T14:02:08;27.70;;;15.60;;
20084;SDS011;10202;48.474;9.138;2023-02-10T14:12:54;28.73;;;15.48;;
20084;SDS011;10202;48.474;9.138;2023-02-10T14:15:34;24.30;;;14.70;;
20084;SDS011;10202;48.474;9.138;2023-02-10T14:18:05;27.23;;;15.00;;
20084;SDS011;10202;48.474;9.138;2023-02-10T14:20:55;25.98;;;14.85;;
20084;SDS011;10202;48.474;9.138;2023-02-10T14:23:37;28.17;;;14.38;;
20084;SDS011;10202;48.474;9.138;2023-02-10T14:26:16;26.98;;;15.25;;
20084;SDS011;10202;48.474;9.138;2023-02-10T14:28:50;30.25;;;14.25;;
20084;SDS011;10202;48.474;9.138;2023-02-10T14:31:32;28.10;;;14.60;;
20084;SDS011;10202;48.474;9.138;2023-02-10T14:34:05;27.43;;;14.90;;
20084;SDS011;10202;48.474;9.138;2023-02-10T14:36:52;24.40;;;14.27;;
20084;SDS011;10202;48.474;9.138;2023-02-10T14:39:39;24.65;;;13.98;;
20084;SDS011;10202;48.474;9.138;2023-02-10T14:42:10;25.97;;;14.00;;
20084;SDS011;10202;48.474;9.138;2023-02-10T14:44:43;24.42;;;13.13;;
20084;SDS011;10202;48.474;9.138;2023-02-10T14:47:15;24.27;;;13.13;;
20084;SDS011;10202;48.474;9.138;2023-02-10T14:49:47;25.02;;;13.98;;
20084;SDS011;10202;48.474;9.138;2023-02-10T14:52:20;23.15;;;12.85;;
20084;SDS011;10202;48.474;9.138;2023-02-10T14:54:58;21.85;;;12.45;;
20084;SDS011;10202;48.474;9.138;2023-02-10T14:57:27;22.98;;;12.55;;
20084;SDS011;10202;48.474;9.138;2023-02-10T14:59:57;23.20;;;13.18;;
20084;SDS011;10202;48.474;9.138;2023-02-10T15:02:28;21.65;;;12.18;;
20084;SDS011;10202;48.474;9.138;2023-02-10T15:04:57;22.92;;;12.25;;
20084;SDS011;10202;48.474;9.138;2023-02-10T15:07:31;23.23;;;12.15;;
20084;SDS011;10202;48.474;9.138;2023-02-10T15:10:46;22.13;;;12.90;;
20084;SDS011;10202;48.474;9.138;2023-02-10T15:12:49;23.45;;;13.18;;
20084;SDS011;10202;48.474;9.138;2023-02-10T15:15:28;22.23;;;12.15;;
20084;SDS011;10202;48.474;9.138;2023-02-10T15:18:00;22.38;;;12.60;;
20084;SDS011;10202;48.474;9.138;2023-02-10T15:20:38;23.07;;;13.37;;
20084;SDS011;10202;48.474;9.138;2023-02-10T15:23:15;24.60;;;13.33;;
20084;SDS011;10202;48.474;9.138;2023-02-10T15:25:44;22.47;;;12.67;;
20084;SDS011;10202;48.474;9.138;2023-02-10T15:30:57;21.87;;;12.47;;
20084;SDS011;10202;48.474;9.138;2023-02-10T15:46:51;25.77;;;13.23;;
20084;SDS011;10202;48.474;9.138;2023-02-10T15:49:40;28.03;;;14.37;;
20084;SDS011;10202;48.474;9.138;2023-02-10T15:52:20;24.33;;;13.27;;
20084;SDS011;10202;48.474;9.138;2023-02-10T15:55:00;24.97;;;13.83;;
20084;SDS011;10202;48.474;9.138;2023-02-10T15:57:36;25.37;;;13.73;;
20084;SDS011;10202;48.474;9.138;2023-02-10T16:00:09;23.50;;;13.50;;
20084;SDS011;10202;48.474;9.138;2023-02-10T16:02:52;27.00;;;13.67;;
20084;SDS011;10202;48.474;9.138;2023-02-10T16:05:18;22.97;;;12.23;;
20084;SDS011;10202;48.474;9.138;2023-02-10T16:07:51;25.80;;;13.17;;
20084;SDS011;10202;48.474;9.138;2023-02-10T16:10:20;30.40;;;15.97;;
20084;SDS011;10202;48.474;9.138;2023-02-10T16:12:51;38.03;;;19.50;;
20084;SDS011;10202;48.474;9.138;2023-02-10T16:15:23;35.10;;;20.30;;
20084;SDS011;10202;48.474;9.138;2023-02-10T16:17:57;40.97;;;21.07;;
20084;SDS011;10202;48.474;9.138;2023-02-10T16:20:27;41.90;;;21.37;;
20084;SDS011;10202;48.474;9.138;2023-02-10T16:22:59;35.53;;;19.27;;
20084;SDS011;10202;48.474;9.138;2023-02-10T16:25:27;30.83;;;16.63;;
20084;SDS011;10202;48.474;9.138;2023-02-10T16:27:53;40.27;;;18.30;;
20084;SDS011;10202;48.474;9.138;2023-02-10T16:30:25;36.27;;;16.57;;
20084;SDS011;10202;48.474;9.138;2023-02-10T16:33:00;36.33;;;16.37;;
20084;SDS011;10202;48.474;9.138;2023-02-10T16:35:30;27.90;;;14.43;;
20084;SDS011;10202;48.474;9.138;2023-02-10T16:37:58;33.63;;;15.57;;
20084;SDS011;10202;48.474;9.138;2023-02-10T16:40:28;34.60;;;16.33;;
20084;SDS011;10202;48.474;9.138;2023-02-10T16:43:04;27.50;;;14.33;;
20084;SDS011;10202;48.474;9.138;2023-02-10T16:45:30;30.37;;;15.23;;
20084;SDS011;10202;48.474;9.138;2023-02-10T16:47:57;32.90;;;15.67;;
20084;SDS011;10202;48.474;9.138;2023-02-10T16:50:33;33.80;;;16.57;;
20084;SDS011;10202;48.474;9.138;2023-02-10T16:53:02;33.10;;;16.20;;
20084;SDS011;10202;48.474;9.138;2023-02-10T16:55:32;28.60;;;15.00;;
20084;SDS011;10202;48.474;9.138;2023-02-10T16:58:07;27.13;;;14.23;;
20084;SDS011;10202;48.474;9.138;2023-02-10T17:00:40;30.73;;;15.20;;
20084;SDS011;10202;48.474;9.138;2023-02-10T17:03:09;28.90;;;14.83;;
20084;SDS011;10202;48.474;9.138;2023-02-10T17:05:35;26.87;;;14.33;;
20084;SDS011;10202;48.474;9.138;2023-02-10T17:08:02;27.57;;;14.73;;
20084;SDS011;10202;48.474;9.138;2023-02-10T17:10:31;32.33;;;16.67;;
20084;SDS011;10202;48.474;9.138;2023-02-10T17:13:00;35.27;;;17.23;;
20084;SDS011;10202;48.474;9.138;2023-02-10T17:15:29;32.80;;;16.53;;
20084;SDS011;10202;48.474;9.138;2023-02-10T17:17:55;31.00;;;16.23;;
20084;SDS011;10202;48.474;9.138;2023-02-10T17:20:30;41.57;;;18.67;;
20084;SDS011;10202;48.474;9.138;2023-02-10T17:23:01;40.13;;;18.90;;
20084;SDS011;10202;48.474;9.138;2023-02-10T17:25:32;32.33;;;16.43;;